Time;durP1;ratioP1;P1;durP2;ratioP2;P2;SDS_P1;SDS_P2;PMS_P1;PMS_P2;Temp;Humidity;BMP_temperature;BMP_pressure;BME280_temperature;BME280_humidity;BME280_pressure;Samples;Min_cycle;Max_cycle;Signal;HPM_P1;HPM_P2
2022/08/03 00:00:56;;;;;;;1.40;1.33;;;20.10;99.90;;;;;;5074570;28;20847;-78
2022/08/03 00:03:24;;;;;;;1.10;1.00;;;20.10;99.90;;;;;;5074584;28;20451;-78
2022/08/03 00:05:51;;;;;;;1.60;1.23;;;20.10;99.90;;;;;;5074548;28;20448;-78
2022/08/03 00:08:19;;;;;;;2.00;1.03;;;20.00;99.90;;;;;;5074385;28;20444;-78
2022/08/03 00:10:46;;;;;;;1.30;1.20;;;20.00;99.90;;;;;;5074367;28;20472;-78
2022/08/03 00:13:12;;;;;;;1.43;1.20;;;20.00;99.90;;;;;;5074382;28;20449;-78
2022/08/03 00:15:40;;;;;;;2.50;1.43;;;19.90;99.90;;;;;;5073454;28;20464;-78
2022/08/03 00:18:07;;;;;;;2.50;1.50;;;19.90;99.90;;;;;;5074280;28;20502;-78
2022/08/03 00:20:34;;;;;;;3.47;1.83;;;19.90;99.90;;;;;;5074157;28;20457;-78
2022/08/03 00:23:01;;;;;;;2.67;2.47;;;19.80;99.90;;;;;;5074188;28;20445;-78
2022/08/03 00:25:29;;;;;;;2.03;1.20;;;19.80;99.90;;;;;;5073864;28;20963;-78
2022/08/03 00:27:55;;;;;;;1.87;1.00;;;19.80;99.90;;;;;;5073814;28;20956;-78
2022/08/03 00:30:22;;;;;;;1.07;0.70;;;19.80;99.90;;;;;;5073667;28;20988;-78
2022/08/03 00:32:49;;;;;;;2.53;1.03;;;19.80;99.90;;;;;;5074044;28;20444;-78
2022/08/03 00:35:16;;;;;;;1.90;1.47;;;19.70;99.90;;;;;;5073675;28;20928;-78
2022/08/03 00:37:42;;;;;;;4.50;2.07;;;19.70;99.90;;;;;;5073925;28;20451;-78
2022/08/03 00:40:11;;;;;;;3.93;2.80;;;19.70;99.90;;;;;;5073825;28;20460;-78
2022/08/03 00:42:49;;;;;;;4.10;3.03;;;19.60;99.90;;;;;;5073653;28;20531;-78
2022/08/03 00:45:16;;;;;;;3.53;1.67;;;19.60;99.90;;;;;;5073875;28;20437;-78
2022/08/03 00:47:43;;;;;;;2.47;2.23;;;19.60;99.90;;;;;;5073495;28;20948;-78
2022/08/03 00:50:10;;;;;;;1.43;1.03;;;19.50;99.90;;;;;;5073604;28;20484;-78
2022/08/03 00:52:37;;;;;;;1.20;0.90;;;19.50;99.90;;;;;;5073986;28;20460;-78
2022/08/03 00:55:04;;;;;;;1.87;0.83;;;19.50;99.90;;;;;;5073675;28;20440;-78
2022/08/03 00:57:32;;;;;;;1.73;1.43;;;19.50;99.90;;;;;;5073651;28;20452;-78
2022/08/03 01:00:00;;;;;;;0.90;0.90;;;19.50;99.90;;;;;;5073784;28;20461;-78
2022/08/03 01:02:28;;;;;;;8.83;1.17;;;19.50;99.90;;;;;;5073571;28;20449;-78
2022/08/03 01:04:55;;;;;;;0.97;0.97;;;19.50;99.90;;;;;;5073562;28;20453;-78
2022/08/03 01:07:29;;;;;;;0.80;0.80;;;19.50;99.90;;;;;;5073508;28;20440;-78
2022/08/03 01:10:02;;;;;;;1.20;0.80;;;19.40;99.90;;;;;;5073489;28;20996;-78
2022/08/03 01:12:37;;;;;;;0.87;0.83;;;19.40;99.90;;;;;;5073483;28;20437;-78
2022/08/03 01:15:12;;;;;;;1.57;1.47;;;19.40;99.90;;;;;;5073537;28;20429;-78
2022/08/03 01:17:46;;;;;;;9.50;6.10;;;19.40;99.90;;;;;;5073463;28;20432;-78
2022/08/03 01:20:14;;;;;;;8.83;5.00;;;19.40;99.90;;;;;;5073638;28;20460;-78
2022/08/03 01:22:55;;;;;;;5.43;4.07;;;19.30;99.90;;;;;;5073349;28;20440;-78
2022/08/03 01:25:35;;;;;;;4.03;2.87;;;19.30;99.90;;;;;;5073367;28;20456;-78
2022/08/03 01:28:19;;;;;;;1.80;1.50;;;19.30;99.90;;;;;;5072352;28;20437;-78
2022/08/03 01:30:48;;;;;;;2.53;1.60;;;19.20;99.90;;;;;;5073186;28;20852;-78
2022/08/03 01:33:20;;;;;;;2.50;1.63;;;19.20;99.90;;;;;;5073499;28;20440;-78
2022/08/03 01:35:51;;;;;;;1.17;1.07;;;19.20;99.90;;;;;;5073283;28;20429;-78
2022/08/03 01:38:24;;;;;;;2.40;1.70;;;19.20;99.90;;;;;;5073250;28;20425;-78
2022/08/03 01:40:53;;;;;;;1.93;1.50;;;19.20;99.90;;;;;;5072878;28;20822;-78
2022/08/03 01:43:26;;;;;;;1.77;1.07;;;19.20;99.90;;;;;;5073141;28;20451;-78
2022/08/03 01:45:56;;;;;;;3.73;1.83;;;19.10;99.90;;;;;;5073165;28;20444;-78
2022/08/03 01:48:24;;;;;;;2.03;1.67;;;19.10;99.90;;;;;;5073084;28;20457;-78
2022/08/03 01:50:52;;;;;;;1.47;1.10;;;19.10;99.90;;;;;;5072930;28;20515;-78
2022/08/03 01:53:20;;;;;;;1.60;1.23;;;19.10;99.90;;;;;;5073061;28;20440;-78
2022/08/03 01:55:52;;;;;;;3.97;1.00;;;19.10;99.90;;;;;;5073055;28;20456;-78
2022/08/03 01:58:19;;;;;;;1.47;1.13;;;19.10;99.90;;;;;;5073254;28;20429;-78
2022/08/03 02:00:48;;;;;;;1.00;0.90;;;19.10;99.90;;;;;;5073154;28;20806;-78
2022/08/03 02:03:17;;;;;;;0.80;0.80;;;19.10;99.90;;;;;;5072963;28;20452;-78
2022/08/03 02:05:46;;;;;;;1.17;0.80;;;19.10;99.90;;;;;;5072613;28;20956;-78
2022/08/03 02:08:15;;;;;;;2.03;1.40;;;19.10;99.90;;;;;;5072872;28;20444;-78
2022/08/03 02:10:45;;;;;;;1.37;0.87;;;19.10;99.90;;;;;;5072736;28;20489;-78
2022/08/03 02:13:14;;;;;;;0.77;0.77;;;19.10;99.90;;;;;;5072825;28;20510;-78
2022/08/03 02:15:42;;;;;;;1.70;0.93;;;19.00;99.90;;;;;;5072829;28;20452;-78
2022/08/03 02:18:10;;;;;;;0.80;0.80;;;19.00;99.90;;;;;;5072836;28;20440;-78
2022/08/03 02:20:38;;;;;;;1.07;0.80;;;19.00;99.90;;;;;;5072456;28;20468;-78
2022/08/03 02:23:06;;;;;;;2.17;1.20;;;19.00;99.90;;;;;;5072777;28;20444;-78
2022/08/03 02:25:34;;;;;;;1.17;1.17;;;19.00;99.90;;;;;;5072765;28;20449;-78
2022/08/03 02:28:08;;;;;;;1.83;1.60;;;19.00;99.90;;;;;;5072752;28;20452;-78
2022/08/03 02:30:37;;;;;;;1.80;1.70;;;18.90;99.90;;;;;;5072635;28;20485;-78
2022/08/03 02:33:06;;;;;;;2.67;1.90;;;18.90;99.90;;;;;;5072653;28;20456;-78
2022/08/03 02:35:35;;;;;;;1.63;1.53;;;18.90;99.90;;;;;;5072935;28;20445;-78
2022/08/03 02:38:07;;;;;;;1.63;1.53;;;18.90;99.90;;;;;;5072633;28;20452;-78
2022/08/03 02:40:35;;;;;;;2.57;1.37;;;18.90;99.90;;;;;;5076005;28;20461;-78
2022/08/03 02:43:06;;;;;;;3.00;1.13;;;18.80;99.90;;;;;;5076167;28;20440;-78
2022/08/03 02:45:35;;;;;;;2.03;1.83;;;18.80;99.90;;;;;;5076155;28;20444;-78
2022/08/03 02:48:05;;;;;;;0.80;0.80;;;18.80;99.90;;;;;;5075769;28;20793;-78
2022/08/03 02:50:34;;;;;;;1.10;0.80;;;18.80;99.90;;;;;;5075548;28;21065;-78
2022/08/03 02:53:04;;;;;;;0.90;0.80;;;18.80;99.90;;;;;;5075988;28;20449;-78
2022/08/03 02:55:34;;;;;;;0.90;0.90;;;18.70;99.90;;;;;;5076229;28;20502;-78
2022/08/03 02:58:02;;;;;;;0.90;0.90;;;18.70;99.90;;;;;;5075634;28;20433;-78
2022/08/03 03:00:30;;;;;;;1.40;1.30;;;18.70;99.90;;;;;;5075787;28;20464;-78
2022/08/03 03:02:58;;;;;;;1.37;0.80;;;18.70;99.90;;;;;;5075826;28;20433;-78
2022/08/03 03:05:25;;;;;;;1.17;1.07;;;18.60;99.90;;;;;;5075797;28;20448;-78
2022/08/03 03:07:53;;;;;;;3.20;1.80;;;18.60;99.90;;;;;;5075794;28;20456;-78
2022/08/03 03:10:22;;;;;;;1.70;1.07;;;18.60;99.90;;;;;;5075519;28;20491;-78
2022/08/03 03:12:51;;;;;;;1.70;1.60;;;18.60;99.90;;;;;;5075613;28;20506;-78
2022/08/03 03:15:18;;;;;;;1.83;1.23;;;18.60;99.90;;;;;;5075574;28;20448;-78
2022/08/03 03:17:45;;;;;;;1.40;1.30;;;18.60;99.90;;;;;;5075525;28;20449;-78
2022/08/03 03:20:12;;;;;;;2.30;1.60;;;18.50;99.90;;;;;;5075446;28;20476;-78
2022/08/03 03:22:40;;;;;;;1.07;0.80;;;18.50;99.90;;;;;;5075465;28;20472;-78
2022/08/03 03:25:08;;;;;;;1.43;1.30;;;18.50;99.90;;;;;;5075091;28;20982;-78
2022/08/03 03:27:37;;;;;;;0.73;0.73;;;18.50;99.90;;;;;;5075459;28;20448;-78
2022/08/03 03:30:04;;;;;;;1.53;1.27;;;18.50;99.90;;;;;;5075433;28;20491;-78
2022/08/03 03:32:31;;;;;;;1.47;0.90;;;18.50;99.90;;;;;;5074920;28;20444;-78
2022/08/03 03:34:59;;;;;;;1.30;1.00;;;18.50;99.90;;;;;;5075758;28;20451;-78
2022/08/03 03:37:27;;;;;;;1.57;1.00;;;18.50;99.90;;;;;;5075132;28;20449;-78
2022/08/03 03:39:54;;;;;;;1.70;1.00;;;18.50;99.90;;;;;;5075055;28;20468;-78
2022/08/03 03:42:21;;;;;;;2.73;0.90;;;18.50;99.90;;;;;;5074815;28;20516;-78
2022/08/03 03:44:49;;;;;;;1.57;0.73;;;18.50;99.90;;;;;;5075268;28;20441;-78
2022/08/03 03:47:16;;;;;;;0.50;0.50;;;18.50;99.90;;;;;;5074947;28;20448;-78
2022/08/03 03:49:43;;;;;;;1.70;1.30;;;18.50;99.90;;;;;;5073652;28;20492;-78
2022/08/03 03:52:10;;;;;;;0.93;0.93;;;18.50;99.90;;;;;;5074642;28;20437;-78
2022/08/03 03:54:41;;;;;;;1.53;0.87;;;18.40;99.90;;;;;;5074491;28;20791;-78
2022/08/03 03:57:10;;;;;;;1.37;1.07;;;18.40;99.90;;;;;;5074768;28;20514;-78
2022/08/03 03:59:38;;;;;;;0.83;0.77;;;18.40;99.90;;;;;;5074614;28;20552;-78
2022/08/03 04:02:06;;;;;;;0.90;0.70;;;18.40;99.90;;;;;;5074314;28;20944;-78
2022/08/03 04:13:18;;;;;;;2.50;1.10;;;18.40;99.90;;;;;;5061285;28;21008;-78
2022/08/03 04:15:47;;;;;;;0.70;0.70;;;18.40;99.90;;;;;;5074410;28;20453;-78
2022/08/03 04:18:16;;;;;;;1.00;0.90;;;18.40;99.90;;;;;;5074037;28;20932;-78
2022/08/03 04:20:47;;;;;;;1.43;1.20;;;18.40;99.90;;;;;;5074238;28;20457;-78
2022/08/03 04:23:16;;;;;;;0.93;0.87;;;18.40;99.90;;;;;;5074470;28;20455;-78
2022/08/03 04:25:44;;;;;;;1.43;1.10;;;18.40;99.90;;;;;;5073872;28;20936;-78
2022/08/03 04:28:11;;;;;;;3.23;0.93;;;18.30;99.90;;;;;;5074090;28;20456;-78
2022/08/03 04:30:46;;;;;;;1.07;0.80;;;18.40;99.90;;;;;;5073934;28;20483;-79
2022/08/03 04:33:16;;;;;;;1.67;1.57;;;18.30;99.90;;;;;;5074033;28;20519;-79
2022/08/03 04:35:46;;;;;;;1.23;0.80;;;18.40;99.90;;;;;;5074683;28;20461;-79
2022/08/03 04:38:15;;;;;;;0.90;0.70;;;18.40;99.90;;;;;;5073982;28;20442;-79
2022/08/03 04:40:43;;;;;;;0.60;0.60;;;18.40;99.90;;;;;;5073625;28;20488;-79
2022/08/03 04:43:12;;;;;;;0.73;0.73;;;18.50;99.90;;;;;;5074146;28;20467;-79
2022/08/03 04:45:40;;;;;;;1.70;0.97;;;18.50;99.90;;;;;;5073838;28;20451;-79
2022/08/03 04:48:07;;;;;;;0.90;0.90;;;18.50;99.90;;;;;;5073797;28;20444;-79
2022/08/03 04:50:36;;;;;;;1.50;1.40;;;18.60;99.90;;;;;;5073306;28;21002;-79
2022/08/03 04:53:03;;;;;;;0.60;0.60;;;18.60;99.90;;;;;;5073681;28;20480;-79
2022/08/03 04:55:31;;;;;;;1.10;0.80;;;18.60;99.90;;;;;;5073385;28;20448;-78
2022/08/03 04:57:58;;;;;;;1.53;0.67;;;18.60;99.90;;;;;;5074058;28;20460;-79
2022/08/03 05:00:26;;;;;;;1.50;1.33;;;18.70;99.90;;;;;;5073564;28;20468;-79
2022/08/03 05:02:54;;;;;;;1.37;1.37;;;18.70;99.90;;;;;;5073252;28;20456;-79
2022/08/03 05:05:21;;;;;;;2.57;1.37;;;18.70;99.90;;;;;;5073563;28;20455;-79
2022/08/03 05:07:49;;;;;;;0.70;0.70;;;18.80;99.90;;;;;;5073552;28;20453;-79
2022/08/03 05:10:16;;;;;;;1.57;1.27;;;18.80;99.90;;;;;;5073394;28;20484;-78
2022/08/03 05:12:44;;;;;;;1.87;1.33;;;18.80;99.90;;;;;;5073186;28;20957;-79
2022/08/03 05:15:11;;;;;;;2.80;1.53;;;18.90;99.90;;;;;;5073341;28;20457;-79
2022/08/03 05:17:37;;;;;;;3.73;1.47;;;18.90;99.90;;;;;;5073428;28;20445;-79
2022/08/03 05:20:05;;;;;;;3.73;1.50;;;18.90;99.90;;;;;;5073266;28;20472;-79
2022/08/03 05:22:32;;;;;;;1.27;1.13;;;19.00;99.90;;;;;;5073371;28;20444;-79
2022/08/03 05:25:01;;;;;;;1.50;1.00;;;19.10;99.90;;;;;;5073417;28;20540;-79
2022/08/03 05:27:27;;;;;;;1.00;1.00;;;19.10;99.90;;;;;;5073335;28;20445;-79
2022/08/03 05:29:54;;;;;;;1.47;0.87;;;19.10;99.90;;;;;;5073146;28;20476;-79
2022/08/03 05:32:21;;;;;;;1.70;1.37;;;19.20;99.90;;;;;;5072998;28;20448;-79
2022/08/03 05:34:48;;;;;;;1.50;1.00;;;19.20;99.90;;;;;;5073237;28;20461;-79
2022/08/03 05:37:15;;;;;;;1.60;0.97;;;19.30;99.90;;;;;;5073193;28;20437;-79
2022/08/03 05:39:42;;;;;;;2.60;1.20;;;19.40;99.90;;;;;;5073153;28;20475;-79
2022/08/03 05:42:10;;;;;;;1.00;1.00;;;19.40;99.90;;;;;;5072912;28;20491;-79
2022/08/03 05:44:38;;;;;;;1.30;1.20;;;19.50;99.90;;;;;;5073187;28;20860;-79
2022/08/03 05:47:05;;;;;;;1.20;1.20;;;19.50;99.90;;;;;;5073700;28;20518;-79
2022/08/03 05:49:31;;;;;;;1.00;0.90;;;19.60;99.90;;;;;;5073113;28;20461;-79
2022/08/03 05:51:58;;;;;;;2.20;1.20;;;19.60;99.90;;;;;;5073269;28;20495;-79
2022/08/03 05:54:25;;;;;;;2.13;1.13;;;19.70;99.90;;;;;;5072790;28;20967;-79
2022/08/03 05:56:51;;;;;;;1.57;0.93;;;19.70;99.90;;;;;;5073281;28;20448;-79
2022/08/03 05:59:20;;;;;;;1.43;1.30;;;19.90;99.90;;;;;;5072960;28;20471;-79
2022/08/03 06:01:47;;;;;;;1.47;1.37;;;19.90;99.90;;;;;;5073031;28;20445;-79
2022/08/03 06:04:14;;;;;;;1.83;1.10;;;20.10;99.90;;;;;;5073009;28;20448;-79
2022/08/03 06:06:41;;;;;;;1.80;0.87;;;20.20;99.90;;;;;;5072880;28;20479;-79
2022/08/03 06:09:09;;;;;;;1.27;1.00;;;20.40;99.90;;;;;;5072943;28;20444;-79
2022/08/03 06:11:36;;;;;;;2.77;1.47;;;20.50;99.90;;;;;;5072914;28;20487;-79
2022/08/03 06:14:03;;;;;;;0.80;0.77;;;20.70;99.90;;;;;;5075417;28;20448;-79
2022/08/03 06:16:31;;;;;;;1.03;1.03;;;20.90;99.90;;;;;;5076729;28;20451;-79
2022/08/03 06:18:58;;;;;;;1.30;0.80;;;21.00;99.90;;;;;;5076682;28;20440;-79
2022/08/03 06:21:24;;;;;;;1.60;1.50;;;21.20;99.90;;;;;;5076556;28;20475;-79
2022/08/03 06:23:51;;;;;;;0.80;0.80;;;21.40;99.90;;;;;;5076378;28;20452;-79
2022/08/03 06:26:19;;;;;;;1.33;0.90;;;21.60;99.90;;;;;;5076571;28;20483;-79
2022/08/03 06:28:45;;;;;;;0.83;0.83;;;21.70;99.90;;;;;;5076250;28;20944;-79
2022/08/03 06:31:12;;;;;;;0.93;0.63;;;21.90;99.90;;;;;;5075976;28;20994;-78
2022/08/03 06:33:40;;;;;;;1.27;0.90;;;22.00;99.90;;;;;;5076377;28;20448;-79
2022/08/03 06:36:07;;;;;;;2.20;0.90;;;22.20;99.90;;;;;;5076401;28;20436;-79
2022/08/03 06:38:34;;;;;;;3.70;0.83;;;22.40;99.90;;;;;;5076286;28;20459;-79
2022/08/03 06:41:01;;;;;;;1.40;0.83;;;22.50;99.90;;;;;;5075693;28;20480;-79
2022/08/03 06:43:27;;;;;;;0.87;0.87;;;22.60;99.90;;;;;;5076175;28;20454;-79
2022/08/03 06:45:54;;;;;;;1.50;0.80;;;22.80;99.90;;;;;;5076166;28;20456;-79
2022/08/03 06:48:21;;;;;;;1.33;0.90;;;22.90;99.90;;;;;;5076129;28;20429;-79
2022/08/03 06:50:49;;;;;;;1.60;0.90;;;23.20;99.90;;;;;;5076157;28;20229;-78
2022/08/03 06:53:16;;;;;;;0.63;0.63;;;23.40;99.90;;;;;;5076353;28;20202;-79
2022/08/03 06:55:43;;;;;;;1.17;0.80;;;23.60;99.90;;;;;;5076002;28;20210;-79
2022/08/03 06:58:09;;;;;;;4.80;1.17;;;23.80;99.90;;;;;;5075996;28;20202;-78
2022/08/03 07:00:36;;;;;;;0.93;0.83;;;23.90;99.90;;;;;;5075943;28;20232;-79
2022/08/03 07:03:03;;;;;;;1.50;1.20;;;23.90;99.90;;;;;;5076569;28;20206;-79
2022/08/03 07:05:32;;;;;;;0.80;0.80;;;24.00;99.90;;;;;;5075832;28;20198;-79
2022/08/03 07:08:01;;;;;;;2.00;1.17;;;24.10;99.90;;;;;;5075791;28;20233;-79
2022/08/03 07:10:29;;;;;;;1.08;0.95;;;24.20;99.90;;;;;;5075562;28;20230;-79
2022/08/03 07:12:56;;;;;;;0.77;0.73;;;24.30;99.90;;;;;;5075699;28;20209;-79
2022/08/03 07:15:23;;;;;;;0.82;0.63;;;24.50;99.90;;;;;;5075606;28;20213;-79
2022/08/03 07:17:49;;;;;;;0.80;0.80;;;24.70;99.90;;;;;;5075597;28;20202;-79
2022/08/03 07:20:17;;;;;;;0.70;0.70;;;24.70;99.90;;;;;;5075138;28;20229;-79
2022/08/03 07:22:43;;;;;;;0.90;0.88;;;24.80;99.90;;;;;;5075460;28;20280;-79
2022/08/03 07:25:12;;;;;;;1.15;0.60;;;24.90;99.90;;;;;;5075373;28;20213;-79
2022/08/03 07:27:38;;;;;;;0.60;0.60;;;25.20;99.90;;;;;;5075199;28;20209;-79
2022/08/03 07:30:08;;;;;;;0.80;0.80;;;25.40;99.90;;;;;;5075265;28;20226;-79
2022/08/03 07:32:35;;;;;;;1.25;0.68;;;25.50;99.90;;;;;;5075203;28;20229;-79
2022/08/03 07:35:02;;;;;;;0.65;0.65;;;25.80;99.90;;;;;;5075277;28;20214;-79
2022/08/03 07:37:29;;;;;;;1.00;0.90;;;25.80;99.90;;;;;;5075195;28;20206;-79
2022/08/03 07:39:56;;;;;;;0.77;0.52;;;25.90;99.90;;;;;;5075057;28;20236;-79
2022/08/03 07:42:24;;;;;;;1.05;0.95;;;26.10;99.90;;;;;;5074902;28;20226;-79
2022/08/03 07:44:51;;;;;;;0.60;0.60;;;26.30;99.90;;;;;;5075032;28;20206;-79
2022/08/03 07:47:19;;;;;;;1.45;1.00;;;26.30;99.90;;;;;;5075008;28;20692;-79
2022/08/03 07:49:46;;;;;;;1.60;0.85;;;26.40;99.90;;;;;;5074897;28;20218;-79
2022/08/03 07:54:57;;;;;;;0.60;0.60;;;26.80;99.90;;;;;;5075247;28;20190;-79
2022/08/03 07:57:25;;;;;;;0.77;0.70;;;27.00;99.90;;;;;;5074493;28;20584;-79
2022/08/03 07:59:51;;;;;;;0.60;0.60;;;27.10;99.90;;;;;;5074484;28;20245;-79
2022/08/03 08:02:18;;;;;;;0.52;0.52;;;27.30;99.90;;;;;;5074738;28;20221;-79
2022/08/03 08:04:45;;;;;;;0.65;0.65;;;27.30;99.90;;;;;;5074896;28;20210;-79
2022/08/03 08:07:12;;;;;;;0.55;0.55;;;27.50;99.90;;;;;;5074248;28;20625;-79
2022/08/03 08:09:39;;;;;;;1.20;0.70;;;27.70;99.90;;;;;;5074490;28;20222;-79
2022/08/03 08:12:07;;;;;;;1.25;0.70;;;27.70;99.90;;;;;;5074395;28;20230;-79
2022/08/03 08:14:35;;;;;;;0.82;0.50;;;28.00;99.90;;;;;;5074448;28;20209;-79
2022/08/03 08:17:02;;;;;;;1.00;0.70;;;28.40;99.90;;;;;;5074472;28;20194;-79
2022/08/03 08:19:28;;;;;;;0.50;0.50;;;28.80;99.90;;;;;;5073962;28;20591;-79
2022/08/03 08:21:55;;;;;;;0.60;0.50;;;29.20;99.90;;;;;;5074023;28;20208;-79
2022/08/03 08:24:22;;;;;;;0.80;0.50;;;29.30;99.90;;;;;;5074309;28;20623;-79
2022/08/03 08:26:48;;;;;;;0.60;0.60;;;29.20;99.90;;;;;;5074794;28;20212;-79
2022/08/03 08:29:15;;;;;;;0.82;0.82;;;29.10;99.90;;;;;;5074116;28;20215;-79
2022/08/03 08:31:44;;;;;;;0.50;0.50;;;28.90;99.90;;;;;;5074225;28;20217;-79
2022/08/03 08:34:11;;;;;;;0.68;0.68;;;28.90;99.90;;;;;;5073677;28;20574;-79
2022/08/03 08:36:38;;;;;;;1.42;0.50;;;28.70;99.90;;;;;;5073582;28;20203;-78
2022/08/03 08:39:05;;;;;;;0.50;0.50;;;28.50;99.90;;;;;;5074129;28;20594;-79
2022/08/03 08:41:33;;;;;;;0.50;0.50;;;28.60;99.90;;;;;;5073476;28;20233;-79
2022/08/03 08:44:01;;;;;;;0.40;0.40;;;28.60;99.90;;;;;;5073921;28;20275;-79
2022/08/03 08:46:32;;;;;;;0.50;0.50;;;28.70;99.90;;;;;;5073850;28;20204;-79
2022/08/03 08:49:01;;;;;;;0.60;0.60;;;28.70;99.90;;;;;;5074497;28;20557;-82
2022/08/03 08:51:32;;;;;;;1.08;0.50;;;28.80;99.90;;;;;;5073269;28;20259;-82
2022/08/03 08:54:02;;;;;;;0.47;0.47;;;28.90;99.90;;;;;;5073787;28;20214;-82
2022/08/03 08:56:32;;;;;;;0.57;0.57;;;28.80;99.90;;;;;;5073772;28;20188;-82
2022/08/03 08:59:01;;;;;;;0.60;0.50;;;28.90;99.10;;;;;;5073358;28;20588;-82
2022/08/03 09:01:28;;;;;;;0.50;0.50;;;29.10;99.60;;;;;;5073572;28;20223;-82
2022/08/03 09:03:55;;;;;;;0.50;0.50;;;29.40;97.60;;;;;;5073655;28;20208;-82
2022/08/03 09:06:24;;;;;;;0.50;0.50;;;29.40;98.00;;;;;;5073622;28;20214;-82
2022/08/03 09:08:51;;;;;;;0.60;0.60;;;29.50;96.30;;;;;;5073860;28;20204;-82
2022/08/03 09:11:21;;;;;;;0.60;0.60;;;29.70;96.50;;;;;;5073048;28;20226;-82
2022/08/03 09:13:48;;;;;;;0.60;0.52;;;29.80;95.40;;;;;;5073875;28;20211;-82
2022/08/03 09:16:16;;;;;;;0.50;0.50;;;29.90;94.20;;;;;;5073495;28;20205;-82
2022/08/03 09:18:45;;;;;;;0.57;0.57;;;29.90;94.20;;;;;;5073940;28;20570;-82
2022/08/03 09:21:17;;;;;;;0.60;0.60;;;29.90;93.70;;;;;;5073109;28;20738;-82
2022/08/03 09:23:47;;;;;;;0.50;0.50;;;30.10;94.30;;;;;;5073112;28;20558;-82
2022/08/03 09:26:20;;;;;;;0.60;0.60;;;30.20;94.50;;;;;;5073647;28;20202;-82
2022/08/03 09:28:54;;;;;;;0.98;0.60;;;30.20;94.10;;;;;;5073416;28;20189;-83
2022/08/03 09:31:30;;;;;;;1.25;0.77;;;30.40;93.10;;;;;;5072992;28;20755;-83
2022/08/03 09:33:59;;;;;;;0.70;0.70;;;30.50;91.90;;;;;;5073340;28;20190;-82
2022/08/03 09:36:37;;;;;;;0.60;0.60;;;30.40;91.90;;;;;;5072946;28;20720;-83
2022/08/03 09:39:09;;;;;;;0.70;0.50;;;30.40;90.80;;;;;;5072924;28;20665;-82
2022/08/03 09:41:36;;;;;;;0.63;0.63;;;30.40;90.40;;;;;;5072912;28;20233;-83
2022/08/03 09:44:03;;;;;;;0.68;0.68;;;30.30;90.80;;;;;;5073155;28;20213;-83
2022/08/03 09:46:32;;;;;;;0.63;0.60;;;30.30;91.00;;;;;;5072885;28;20207;-83
2022/08/03 09:49:12;;;;;;;0.60;0.60;;;30.30;91.40;;;;;;5074870;28;20753;-83
2022/08/03 09:51:39;;;;;;;0.65;0.60;;;30.40;89.90;;;;;;5077254;28;20225;-83
2022/08/03 09:54:08;;;;;;;0.93;0.60;;;30.50;88.10;;;;;;5077041;28;20672;-83
2022/08/03 09:56:39;;;;;;;0.70;0.70;;;30.60;88.70;;;;;;5077218;28;20190;-84
2022/08/03 09:59:06;;;;;;;3.33;0.70;;;30.80;87.50;;;;;;5076694;28;20684;-83
2022/08/03 10:01:34;;;;;;;0.73;0.70;;;30.90;89.60;;;;;;5077395;28;20217;-82
2022/08/03 10:04:01;;;;;;;0.60;0.50;;;31.00;86.40;;;;;;5076711;28;20241;-82
2022/08/03 10:06:27;;;;;;;0.60;0.60;;;31.10;82.50;;;;;;5076662;28;20210;-82
2022/08/03 10:09:07;;;;;;;0.60;0.50;;;31.10;83.30;;;;;;5076881;28;20321;-81
2022/08/03 10:11:35;;;;;;;0.60;0.60;;;31.00;81.80;;;;;;5077023;28;20186;-81
2022/08/03 10:14:03;;;;;;;0.77;0.77;;;30.90;83.30;;;;;;5076484;28;20205;-82
2022/08/03 10:16:34;;;;;;;0.50;0.50;;;31.00;84.00;;;;;;5076772;28;20202;-81
2022/08/03 10:19:01;;;;;;;0.57;0.57;;;31.10;82.40;;;;;;5076767;28;20179;-81
2022/08/03 10:21:32;;;;;;;0.60;0.60;;;31.10;84.50;;;;;;5076305;28;20261;-82
2022/08/03 10:23:59;;;;;;;1.50;0.50;;;31.30;82.40;;;;;;5076583;28;20190;-81
2022/08/03 10:26:30;;;;;;;0.60;0.60;;;31.20;83.80;;;;;;5076294;28;20244;-81
2022/08/03 10:29:01;;;;;;;0.93;0.70;;;31.20;82.10;;;;;;5077028;28;20194;-81
2022/08/03 10:31:34;;;;;;;0.80;0.63;;;31.10;82.50;;;;;;5076412;28;20313;-81
2022/08/03 10:34:04;;;;;;;0.70;0.70;;;31.10;85.10;;;;;;5076747;28;20182;-81
2022/08/03 10:36:33;;;;;;;1.10;1.05;;;31.30;84.80;;;;;;5076757;28;20209;-81
2022/08/03 10:39:01;;;;;;;0.60;0.60;;;31.30;86.80;;;;;;5075999;28;20681;-81
2022/08/03 10:41:41;;;;;;;0.60;0.60;;;31.50;85.00;;;;;;5075707;28;20617;-82
2022/08/03 10:44:12;;;;;;;1.25;0.82;;;31.70;79.00;;;;;;5075959;28;20226;-82
2022/08/03 10:46:40;;;;;;;0.60;0.60;;;31.80;78.80;;;;;;5076387;28;20616;-82
2022/08/03 10:49:07;;;;;;;0.55;0.55;;;31.80;77.50;;;;;;5076183;28;20670;-81
2022/08/03 10:51:35;;;;;;;0.60;0.60;;;31.70;79.40;;;;;;5076083;28;20212;-82
2022/08/03 10:54:02;;;;;;;0.65;0.65;;;31.50;79.20;;;;;;5076186;28;20205;-82
2022/08/03 10:59:59;;;;;;;0.63;0.60;;;31.60;81.00;;;;;;5057893;28;20277;-82
2022/08/03 11:03:01;;;;;;;0.60;0.60;;;32.10;79.00;;;;;;5075896;28;20212;-82
2022/08/03 11:05:29;;;;;;;1.58;0.70;;;32.70;76.50;;;;;;5070416;28;20205;-81
2022/08/03 11:08:17;;;;;;;0.60;0.60;;;33.40;75.50;;;;;;5075819;28;20210;-82
2022/08/03 11:10:44;;;;;;;1.95;0.73;;;34.00;72.90;;;;;;5075678;28;20237;-82
2022/08/03 11:13:15;;;;;;;0.70;0.70;;;34.50;72.80;;;;;;5075801;28;20218;-82
2022/08/03 11:15:44;;;;;;;1.08;0.70;;;34.70;71.40;;;;;;5075441;28;20187;-81
2022/08/03 11:18:12;;;;;;;0.70;0.70;;;34.50;68.40;;;;;;5075604;28;20202;-81
2022/08/03 11:20:49;;;;;;;0.55;0.55;;;34.10;67.70;;;;;;5075205;28;20620;-82
2022/08/03 11:23:20;;;;;;;0.70;0.70;;;33.60;69.90;;;;;;5075485;28;20197;-82
2022/08/03 11:26:21;;;;;;;0.80;0.80;;;33.20;71.40;;;;;;5075768;28;20183;-82
2022/08/03 11:28:49;;;;;;;0.60;0.60;;;32.80;72.50;;;;;;5013466;28;20274;-82
2022/08/03 11:31:44;;;;;;;3.80;0.70;;;32.60;70.30;;;;;;5013515;28;20231;-82
2022/08/03 11:34:12;;;;;;;1.40;0.93;;;32.30;70.90;;;;;;5053292;28;20596;-82
2022/08/03 11:37:12;;;;;;;0.80;0.60;;;32.10;71.40;;;;;;5074953;28;20684;-82
2022/08/03 11:39:39;;;;;;;0.70;0.70;;;31.80;72.60;;;;;;5074791;28;20235;-81
2022/08/03 11:42:40;;;;;;;1.45;0.60;;;31.60;73.50;;;;;;5074829;28;20235;-82
2022/08/03 11:45:09;;;;;;;0.70;0.70;;;31.50;74.00;;;;;;5070662;28;20210;-81
2022/08/03 11:47:39;;;;;;;0.60;0.60;;;31.40;74.50;;;;;;5075033;28;20207;-81
2022/08/03 11:50:06;;;;;;;0.95;0.95;;;31.40;72.50;;;;;;5074607;28;20775;-81
2022/08/03 11:52:39;;;;;;;0.68;0.68;;;31.40;75.20;;;;;;5074894;28;20207;-81
2022/08/03 11:55:11;;;;;;;0.60;0.60;;;31.40;74.70;;;;;;5074728;28;20202;-81
2022/08/03 11:57:38;;;;;;;0.80;0.63;;;31.30;74.60;;;;;;5074887;28;20205;-82
2022/08/03 12:00:29;;;;;;;0.60;0.60;;;31.30;74.50;;;;;;5074784;28;20227;-82
2022/08/03 12:02:57;;;;;;;0.93;0.77;;;31.30;73.20;;;;;;5074406;28;20186;-82
2022/08/03 12:05:38;;;;;;;0.50;0.50;;;31.40;73.70;;;;;;5074906;28;20213;-82
2022/08/03 12:08:06;;;;;;;1.10;0.65;;;31.40;73.50;;;;;;5074622;28;20198;-81
2022/08/03 12:10:33;;;;;;;0.63;0.50;;;31.30;71.40;;;;;;5074021;28;20223;-81
2022/08/03 12:13:04;;;;;;;0.60;0.60;;;31.30;71.60;;;;;;5074106;28;20218;-78
2022/08/03 12:15:33;;;;;;;0.73;0.60;;;31.20;74.20;;;;;;5074474;28;20205;-78
2022/08/03 12:18:01;;;;;;;0.63;0.63;;;31.30;74.80;;;;;;5074361;28;20198;-78
2022/08/03 12:20:31;;;;;;;0.60;0.60;;;31.30;72.60;;;;;;5074631;28;20227;-77
2022/08/03 12:23:03;;;;;;;0.93;0.70;;;31.30;72.40;;;;;;5074519;28;20210;-77
2022/08/03 12:25:30;;;;;;;0.85;0.60;;;31.20;71.20;;;;;;5074293;28;20196;-78
2022/08/03 12:28:12;;;;;;;0.70;0.70;;;31.10;72.00;;;;;;5074214;28;20203;-78
2022/08/03 12:30:40;;;;;;;0.80;0.50;;;31.10;73.50;;;;;;5074138;28;20218;-77
2022/08/03 12:33:14;;;;;;;0.88;0.88;;;31.00;72.90;;;;;;5074063;28;20210;-78
2022/08/03 12:35:41;;;;;;;0.60;0.60;;;31.00;71.80;;;;;;5073766;28;20700;-77
2022/08/03 12:38:08;;;;;;;0.60;0.60;;;30.90;72.40;;;;;;5074040;28;20202;-80
2022/08/03 12:40:35;;;;;;;0.68;0.68;;;30.80;73.30;;;;;;5073416;28;20712;-80
2022/08/03 12:43:10;;;;;;;0.90;0.80;;;30.80;70.90;;;;;;5073708;28;20648;-77
2022/08/03 12:45:36;;;;;;;0.60;0.60;;;30.70;71.60;;;;;;5073629;28;20197;-77
2022/08/03 12:48:09;;;;;;;0.60;0.60;;;30.70;71.30;;;;;;5073831;28;20214;-77
2022/08/03 12:50:37;;;;;;;3.05;0.73;;;30.60;71.30;;;;;;5073469;28;20229;-77
2022/08/03 12:53:06;;;;;;;2.60;0.65;;;30.50;72.70;;;;;;5073427;28;20599;-77
2022/08/03 12:55:34;;;;;;;1.17;1.00;;;30.40;73.20;;;;;;5073826;28;20189;-77
2022/08/03 12:58:00;;;;;;;0.77;0.77;;;30.30;72.80;;;;;;5073685;28;20231;-77
2022/08/03 13:00:29;;;;;;;0.70;0.70;;;30.30;70.10;;;;;;5073361;28;20218;-77
2022/08/03 13:03:01;;;;;;;0.63;0.60;;;30.20;67.90;;;;;;5073721;28;20318;-77
2022/08/03 13:05:29;;;;;;;0.55;0.43;;;30.10;68.60;;;;;;5073886;28;20535;-77
2022/08/03 13:07:56;;;;;;;0.52;0.52;;;30.10;67.30;;;;;;5073526;28;20549;-77
2022/08/03 13:10:30;;;;;;;0.70;0.55;;;30.10;65.00;;;;;;5073478;28;20222;-77
2022/08/03 13:12:58;;;;;;;0.57;0.57;;;30.10;64.50;;;;;;5073447;28;20221;-77